sensor_id;sensor_type;location;lat;lon;timestamp;temperature;humidity
75799;DHT22;70933;44.692;37.776;2023-07-16T00:00:06;27.35;35.20
75799;DHT22;70933;44.692;37.776;2023-07-16T00:01:09;27.34;34.94
75799;DHT22;70933;44.692;37.776;2023-07-16T00:02:11;27.34;34.60
75799;DHT22;70933;44.692;37.776;2023-07-16T00:03:13;27.32;34.86
75799;DHT22;70933;44.692;37.776;2023-07-16T00:04:15;27.32;36.56
75799;DHT22;70933;44.692;37.776;2023-07-16T00:05:17;27.34;38.65
75799;DHT22;70933;44.692;37.776;2023-07-16T00:06:19;27.35;38.84
75799;DHT22;70933;44.692;37.776;2023-07-16T00:07:21;27.36;37.32
75799;DHT22;70933;44.692;37.776;2023-07-16T00:08:23;27.36;36.82
75799;DHT22;70933;44.692;37.776;2023-07-16T00:09:24;27.37;36.22
75799;DHT22;70933;44.692;37.776;2023-07-16T00:10:26;27.36;35.76
75799;DHT22;70933;44.692;37.776;2023-07-16T00:11:28;27.35;35.35
75799;DHT22;70933;44.692;37.776;2023-07-16T00:12:30;27.35;35.11
75799;DHT22;70933;44.692;37.776;2023-07-16T00:13:32;27.34;34.87
75799;DHT22;70933;44.692;37.776;2023-07-16T00:14:34;27.32;34.72
75799;DHT22;70933;44.692;37.776;2023-07-16T00:15:36;27.34;35.63
75799;DHT22;70933;44.692;37.776;2023-07-16T00:16:37;27.32;37.37
75799;DHT22;70933;44.692;37.776;2023-07-16T00:17:39;27.35;38.99
75799;DHT22;70933;44.692;37.776;2023-07-16T00:18:43;27.35;38.31
75799;DHT22;70933;44.692;37.776;2023-07-16T00:19:45;27.36;37.11
75799;DHT22;70933;44.692;37.776;2023-07-16T00:20:47;27.37;36.51
75799;DHT22;70933;44.692;37.776;2023-07-16T00:21:49;27.36;36.25
75799;DHT22;70933;44.692;37.776;2023-07-16T00:22:51;27.35;35.64
75799;DHT22;70933;44.692;37.776;2023-07-16T00:23:53;27.35;35.30
75799;DHT22;70933;44.692;37.776;2023-07-16T00:24:55;27.32;35.02
75799;DHT22;70933;44.692;37.776;2023-07-16T00:25:57;27.34;34.78
75799;DHT22;70933;44.692;37.776;2023-07-16T00:26:59;27.32;34.57
75799;DHT22;70933;44.692;37.776;2023-07-16T00:28:00;27.32;36.27
75799;DHT22;70933;44.692;37.776;2023-07-16T00:29:02;27.32;38.18
75799;DHT22;70933;44.692;37.776;2023-07-16T00:30:04;27.35;38.92
75799;DHT22;70933;44.692;37.776;2023-07-16T00:31:07;27.36;37.03
75799;DHT22;70933;44.692;37.776;2023-07-16T00:32:09;27.37;36.62
75799;DHT22;70933;44.692;37.776;2023-07-16T00:33:12;27.35;36.08
75799;DHT22;70933;44.692;37.776;2023-07-16T00:34:14;27.35;35.49
75799;DHT22;70933;44.692;37.776;2023-07-16T00:35:15;27.35;35.08
75799;DHT22;70933;44.692;37.776;2023-07-16T00:36:17;27.32;34.79
75799;DHT22;70933;44.692;37.776;2023-07-16T00:37:19;27.31;34.68
75799;DHT22;70933;44.692;37.776;2023-07-16T00:38:21;27.32;34.28
75799;DHT22;70933;44.692;37.776;2023-07-16T00:39:22;27.32;34.60
75799;DHT22;70933;44.692;37.776;2023-07-16T00:40:24;27.30;36.40
75799;DHT22;70933;44.692;37.776;2023-07-16T00:41:26;27.34;37.91
75799;DHT22;70933;44.692;37.776;2023-07-16T00:42:28;27.35;37.80
75799;DHT22;70933;44.692;37.776;2023-07-16T00:43:29;27.35;36.50
75799;DHT22;70933;44.692;37.776;2023-07-16T00:44:31;27.35;36.05
75799;DHT22;70933;44.692;37.776;2023-07-16T00:45:33;27.35;35.49
75799;DHT22;70933;44.692;37.776;2023-07-16T00:46:35;27.34;35.02
75799;DHT22;70933;44.692;37.776;2023-07-16T00:47:36;27.34;34.88
75799;DHT22;70933;44.692;37.776;2023-07-16T00:48:40;27.31;34.44
75799;DHT22;70933;44.692;37.776;2023-07-16T00:49:42;27.30;34.41
75799;DHT22;70933;44.692;37.776;2023-07-16T00:50:44;27.31;34.27
75799;DHT22;70933;44.692;37.776;2023-07-16T00:51:46;27.30;35.12
75799;DHT22;70933;44.692;37.776;2023-07-16T00:52:48;27.31;36.88
75799;DHT22;70933;44.692;37.776;2023-07-16T00:53:51;27.31;38.20
75799;DHT22;70933;44.692;37.776;2023-07-16T00:54:52;27.34;36.71
75799;DHT22;70933;44.692;37.776;2023-07-16T00:55:54;27.34;36.09
75799;DHT22;70933;44.692;37.776;2023-07-16T00:56:56;27.34;35.64
75799;DHT22;70933;44.692;37.776;2023-07-16T00:58:01;27.34;35.29
75799;DHT22;70933;44.692;37.776;2023-07-16T00:59:06;27.34;34.99
75799;DHT22;70933;44.692;37.776;2023-07-16T01:00:09;27.32;34.63
75799;DHT22;70933;44.692;37.776;2023-07-16T01:01:11;27.31;34.12
75799;DHT22;70933;44.692;37.776;2023-07-16T01:02:13;27.30;33.73
75799;DHT22;70933;44.692;37.776;2023-07-16T01:03:15;27.29;34.02
75799;DHT22;70933;44.692;37.776;2023-07-16T01:04:17;27.31;35.52
75799;DHT22;70933;44.692;37.776;2023-07-16T01:05:20;27.31;36.88
75799;DHT22;70933;44.692;37.776;2023-07-16T01:06:26;27.32;36.95
75799;DHT22;70933;44.692;37.776;2023-07-16T01:07:33;27.31;35.69
75799;DHT22;70933;44.692;37.776;2023-07-16T01:09:58;27.32;34.44
75799;DHT22;70933;44.692;37.776;2023-07-16T01:11:01;27.32;34.01
75799;DHT22;70933;44.692;37.776;2023-07-16T01:12:03;27.30;33.96
75799;DHT22;70933;44.692;37.776;2023-07-16T01:13:06;27.30;33.41
75799;DHT22;70933;44.692;37.776;2023-07-16T01:14:08;27.29;33.14
75799;DHT22;70933;44.692;37.776;2023-07-16T01:15:10;27.29;32.89
75799;DHT22;70933;44.692;37.776;2023-07-16T01:16:21;27.28;35.02
75799;DHT22;70933;44.692;37.776;2023-07-16T01:17:26;27.30;36.52
75799;DHT22;70933;44.692;37.776;2023-07-16T01:18:28;27.31;36.18
75799;DHT22;70933;44.692;37.776;2023-07-16T01:19:29;27.31;35.21
75799;DHT22;70933;44.692;37.776;2023-07-16T01:20:31;27.32;34.56
75799;DHT22;70933;44.692;37.776;2023-07-16T01:26:19;27.28;32.69
75799;DHT22;70933;44.692;37.776;2023-07-16T01:29:28;27.28;35.63
75799;DHT22;70933;44.692;37.776;2023-07-16T01:30:34;27.30;35.69
75799;DHT22;70933;44.692;37.776;2023-07-16T01:31:40;27.31;34.78
75799;DHT22;70933;44.692;37.776;2023-07-16T01:32:42;27.29;34.12
75799;DHT22;70933;44.692;37.776;2023-07-16T01:33:45;27.29;33.70
75799;DHT22;70933;44.692;37.776;2023-07-16T01:34:51;27.28;33.34
75799;DHT22;70933;44.692;37.776;2023-07-16T01:35:54;27.28;32.82
75799;DHT22;70933;44.692;37.776;2023-07-16T01:36:57;27.26;32.70
75799;DHT22;70933;44.692;37.776;2023-07-16T01:37:58;27.25;32.33
75799;DHT22;70933;44.692;37.776;2023-07-16T01:39:01;27.25;32.57
75799;DHT22;70933;44.692;37.776;2023-07-16T01:40:03;27.24;33.49
75799;DHT22;70933;44.692;37.776;2023-07-16T01:41:07;27.25;35.31
75799;DHT22;70933;44.692;37.776;2023-07-16T01:42:09;27.26;36.34
75799;DHT22;70933;44.692;37.776;2023-07-16T01:43:11;27.27;34.96
75799;DHT22;70933;44.692;37.776;2023-07-16T01:44:12;27.27;34.35
75799;DHT22;70933;44.692;37.776;2023-07-16T01:45:17;27.27;33.67
75799;DHT22;70933;44.692;37.776;2023-07-16T01:46:19;27.26;33.33
75799;DHT22;70933;44.692;37.776;2023-07-16T01:47:30;27.26;33.10
75799;DHT22;70933;44.692;37.776;2023-07-16T01:48:35;27.26;32.75
75799;DHT22;70933;44.692;37.776;2023-07-16T01:49:38;27.26;32.28
75799;DHT22;70933;44.692;37.776;2023-07-16T01:50:41;27.25;32.07
75799;DHT22;70933;44.692;37.776;2023-07-16T01:51:43;27.23;32.94
75799;DHT22;70933;44.692;37.776;2023-07-16T01:52:44;27.25;34.56
75799;DHT22;70933;44.692;37.776;2023-07-16T01:53:46;27.26;36.11
75799;DHT22;70933;44.692;37.776;2023-07-16T01:54:48;27.27;35.08
75799;DHT22;70933;44.692;37.776;2023-07-16T01:55:50;27.27;34.47
75799;DHT22;70933;44.692;37.776;2023-07-16T01:56:52;27.27;33.76
75799;DHT22;70933;44.692;37.776;2023-07-16T01:57:53;27.27;33.44
75799;DHT22;70933;44.692;37.776;2023-07-16T01:58:55;27.27;33.06
75799;DHT22;70933;44.692;37.776;2023-07-16T01:59:58;27.27;32.86
75799;DHT22;70933;44.692;37.776;2023-07-16T02:01:00;27.26;32.43
75799;DHT22;70933;44.692;37.776;2023-07-16T02:02:01;27.25;32.20
75799;DHT22;70933;44.692;37.776;2023-07-16T02:03:04;27.23;32.09
75799;DHT22;70933;44.692;37.776;2023-07-16T02:04:07;27.24;33.40
75799;DHT22;70933;44.692;37.776;2023-07-16T02:05:10;27.25;35.31
75799;DHT22;70933;44.692;37.776;2023-07-16T02:06:12;27.27;35.89
75799;DHT22;70933;44.692;37.776;2023-07-16T02:07:15;27.27;34.79
75799;DHT22;70933;44.692;37.776;2023-07-16T02:08:17;27.28;34.09
75799;DHT22;70933;44.692;37.776;2023-07-16T02:09:20;27.26;33.47
75799;DHT22;70933;44.692;37.776;2023-07-16T02:10:22;27.27;33.05
75799;DHT22;70933;44.692;37.776;2023-07-16T02:11:24;27.25;32.70
75799;DHT22;70933;44.692;37.776;2023-07-16T02:12:26;27.25;32.30
75799;DHT22;70933;44.692;37.776;2023-07-16T02:13:28;27.23;32.09
75799;DHT22;70933;44.692;37.776;2023-07-16T02:14:29;27.23;31.80
75799;DHT22;70933;44.692;37.776;2023-07-16T02:15:32;27.22;32.25
75799;DHT22;70933;44.692;37.776;2023-07-16T02:16:34;27.23;33.55
75799;DHT22;70933;44.692;37.776;2023-07-16T02:17:35;27.24;35.31
75799;DHT22;70933;44.692;37.776;2023-07-16T02:18:37;27.25;34.79
75799;DHT22;70933;44.692;37.776;2023-07-16T02:19:40;27.26;34.05
75799;DHT22;70933;44.692;37.776;2023-07-16T02:20:43;27.27;33.38
75799;DHT22;70933;44.692;37.776;2023-07-16T02:21:45;27.26;32.86
75799;DHT22;70933;44.692;37.776;2023-07-16T02:22:46;27.24;32.42
75799;DHT22;70933;44.692;37.776;2023-07-16T02:23:48;27.25;32.10
75799;DHT22;70933;44.692;37.776;2023-07-16T02:24:50;27.24;31.79
75799;DHT22;70933;44.692;37.776;2023-07-16T02:25:52;27.24;31.50
75799;DHT22;70933;44.692;37.776;2023-07-16T02:26:53;27.24;31.41
75799;DHT22;70933;44.692;37.776;2023-07-16T02:27:55;27.22;32.34
75799;DHT22;70933;44.692;37.776;2023-07-16T02:28:58;27.24;33.94
75799;DHT22;70933;44.692;37.776;2023-07-16T02:30:00;27.24;35.14
75799;DHT22;70933;44.692;37.776;2023-07-16T02:31:07;27.26;33.82
75799;DHT22;70933;44.692;37.776;2023-07-16T02:32:08;27.26;33.14
75799;DHT22;70933;44.692;37.776;2023-07-16T02:33:12;27.26;32.76
75799;DHT22;70933;44.692;37.776;2023-07-16T02:34:14;27.26;32.34
75799;DHT22;70933;44.692;37.776;2023-07-16T02:35:17;27.25;31.90
75799;DHT22;70933;44.692;37.776;2023-07-16T02:36:19;27.25;31.53
75799;DHT22;70933;44.692;37.776;2023-07-16T02:37:20;27.24;31.16
75799;DHT22;70933;44.692;37.776;2023-07-16T02:38:22;27.23;30.97
75799;DHT22;70933;44.692;37.776;2023-07-16T02:39:24;27.22;31.16
75799;DHT22;70933;44.692;37.776;2023-07-16T02:40:26;27.24;32.51
75799;DHT22;70933;44.692;37.776;2023-07-16T02:41:27;27.24;34.25
75799;DHT22;70933;44.692;37.776;2023-07-16T02:42:29;27.26;34.15
75799;DHT22;70933;44.692;37.776;2023-07-16T02:43:31;27.25;33.29
75799;DHT22;70933;44.692;37.776;2023-07-16T02:44:33;27.27;32.67
75799;DHT22;70933;44.692;37.776;2023-07-16T02:45:34;27.26;32.17
75799;DHT22;70933;44.692;37.776;2023-07-16T02:46:36;27.24;31.71
75799;DHT22;70933;44.692;37.776;2023-07-16T02:47:38;27.24;31.47
75799;DHT22;70933;44.692;37.776;2023-07-16T02:48:40;27.22;31.06
75799;DHT22;70933;44.692;37.776;2023-07-16T02:49:41;27.21;30.98
75799;DHT22;70933;44.692;37.776;2023-07-16T02:50:43;27.21;30.66
75799;DHT22;70933;44.692;37.776;2023-07-16T02:51:45;27.21;31.52
75799;DHT22;70933;44.692;37.776;2023-07-16T02:52:46;27.22;33.42
75799;DHT22;70933;44.692;37.776;2023-07-16T02:53:48;27.24;34.76
75799;DHT22;70933;44.692;37.776;2023-07-16T02:54:50;27.24;33.81
75799;DHT22;70933;44.692;37.776;2023-07-16T02:55:52;27.25;33.12
75799;DHT22;70933;44.692;37.776;2023-07-16T02:56:53;27.25;32.69
75799;DHT22;70933;44.692;37.776;2023-07-16T02:57:55;27.25;32.31
75799;DHT22;70933;44.692;37.776;2023-07-16T02:58:57;27.25;32.05
75799;DHT22;70933;44.692;37.776;2023-07-16T02:59:59;27.23;31.67
75799;DHT22;70933;44.692;37.776;2023-07-16T03:01:01;27.22;31.45
75799;DHT22;70933;44.692;37.776;2023-07-16T03:02:03;27.23;31.26
75799;DHT22;70933;44.692;37.776;2023-07-16T03:03:05;27.21;31.08
75799;DHT22;70933;44.692;37.776;2023-07-16T03:04:06;27.21;32.70
75799;DHT22;70933;44.692;37.776;2023-07-16T03:05:08;27.22;34.34
75799;DHT22;70933;44.692;37.776;2023-07-16T03:06:10;27.24;35.41
75799;DHT22;70933;44.692;37.776;2023-07-16T03:07:12;27.24;34.07
75799;DHT22;70933;44.692;37.776;2023-07-16T03:08:13;27.25;33.42
75799;DHT22;70933;44.692;37.776;2023-07-16T03:09:15;27.24;32.99
75799;DHT22;70933;44.692;37.776;2023-07-16T03:10:18;27.23;32.62
75799;DHT22;70933;44.692;37.776;2023-07-16T03:11:19;27.23;32.37
75799;DHT22;70933;44.692;37.776;2023-07-16T03:12:21;27.24;32.00
75799;DHT22;70933;44.692;37.776;2023-07-16T03:13:23;27.22;31.71
75799;DHT22;70933;44.692;37.776;2023-07-16T03:14:25;27.21;31.44
75799;DHT22;70933;44.692;37.776;2023-07-16T03:15:26;27.20;31.89
75799;DHT22;70933;44.692;37.776;2023-07-16T03:16:28;27.20;33.25
75799;DHT22;70933;44.692;37.776;2023-07-16T03:17:30;27.21;34.93
75799;DHT22;70933;44.692;37.776;2023-07-16T03:18:32;27.24;34.63
75799;DHT22;70933;44.692;37.776;2023-07-16T03:19:34;27.24;33.96
75799;DHT22;70933;44.692;37.776;2023-07-16T03:20:36;27.24;33.27
75799;DHT22;70933;44.692;37.776;2023-07-16T03:21:38;27.25;32.88
75799;DHT22;70933;44.692;37.776;2023-07-16T03:22:40;27.23;32.68
75799;DHT22;70933;44.692;37.776;2023-07-16T03:23:42;27.23;32.35
75799;DHT22;70933;44.692;37.776;2023-07-16T03:24:43;27.22;32.17
75799;DHT22;70933;44.692;37.776;2023-07-16T03:25:45;27.21;31.90
75799;DHT22;70933;44.692;37.776;2023-07-16T03:26:47;27.21;32.14
75799;DHT22;70933;44.692;37.776;2023-07-16T03:27:49;27.22;33.00
75799;DHT22;70933;44.692;37.776;2023-07-16T03:28:51;27.20;34.23
75799;DHT22;70933;44.692;37.776;2023-07-16T03:29:53;27.23;36.27
75799;DHT22;70933;44.692;37.776;2023-07-16T03:30:55;27.24;35.08
75799;DHT22;70933;44.692;37.776;2023-07-16T03:31:56;27.24;34.55
75799;DHT22;70933;44.692;37.776;2023-07-16T03:32:58;27.24;33.96
75799;DHT22;70933;44.692;37.776;2023-07-16T03:34:00;27.24;33.47
75799;DHT22;70933;44.692;37.776;2023-07-16T03:35:05;27.25;32.97
75799;DHT22;70933;44.692;37.776;2023-07-16T03:36:07;27.24;32.71
75799;DHT22;70933;44.692;37.776;2023-07-16T03:37:09;27.22;32.51
75799;DHT22;70933;44.692;37.776;2023-07-16T03:38:11;27.22;32.10
75799;DHT22;70933;44.692;37.776;2023-07-16T03:39:13;27.21;32.06
75799;DHT22;70933;44.692;37.776;2023-07-16T03:40:17;27.21;33.56
75799;DHT22;70933;44.692;37.776;2023-07-16T03:41:22;27.22;35.08
75799;DHT22;70933;44.692;37.776;2023-07-16T03:42:23;27.24;35.50
75799;DHT22;70933;44.692;37.776;2023-07-16T03:43:25;27.24;34.38
75799;DHT22;70933;44.692;37.776;2023-07-16T03:44:33;27.24;33.75
75799;DHT22;70933;44.692;37.776;2023-07-16T03:45:36;27.25;33.31
75799;DHT22;70933;44.692;37.776;2023-07-16T03:46:38;27.24;32.95
75799;DHT22;70933;44.692;37.776;2023-07-16T03:47:40;27.24;32.82
75799;DHT22;70933;44.692;37.776;2023-07-16T03:48:42;27.23;32.34
75799;DHT22;70933;44.692;37.776;2023-07-16T03:49:44;27.23;31.96
75799;DHT22;70933;44.692;37.776;2023-07-16T03:50:46;27.22;31.86
75799;DHT22;70933;44.692;37.776;2023-07-16T03:51:48;27.21;32.80
75799;DHT22;70933;44.692;37.776;2023-07-16T03:52:50;27.23;34.26
75799;DHT22;70933;44.692;37.776;2023-07-16T03:53:52;27.25;35.73
75799;DHT22;70933;44.692;37.776;2023-07-16T03:54:53;27.25;35.06
75799;DHT22;70933;44.692;37.776;2023-07-16T03:55:56;27.25;34.37
75799;DHT22;70933;44.692;37.776;2023-07-16T03:56:58;27.26;33.69
75799;DHT22;70933;44.692;37.776;2023-07-16T03:58:00;27.26;33.27
75799;DHT22;70933;44.692;37.776;2023-07-16T03:59:02;27.26;32.87
75799;DHT22;70933;44.692;37.776;2023-07-16T04:00:05;27.25;32.56
75799;DHT22;70933;44.692;37.776;2023-07-16T04:01:15;27.25;32.09
75799;DHT22;70933;44.692;37.776;2023-07-16T04:02:17;27.24;31.94
75799;DHT22;70933;44.692;37.776;2023-07-16T04:03:19;27.24;32.12
75799;DHT22;70933;44.692;37.776;2023-07-16T04:04:20;27.23;33.56
75799;DHT22;70933;44.692;37.776;2023-07-16T04:05:22;27.25;34.91
75799;DHT22;70933;44.692;37.776;2023-07-16T04:06:25;27.26;35.42
75799;DHT22;70933;44.692;37.776;2023-07-16T04:07:27;27.27;34.67
75799;DHT22;70933;44.692;37.776;2023-07-16T04:08:29;27.27;33.99
75799;DHT22;70933;44.692;37.776;2023-07-16T04:09:31;27.27;33.38
75799;DHT22;70933;44.692;37.776;2023-07-16T04:10:33;27.27;32.99
75799;DHT22;70933;44.692;37.776;2023-07-16T04:11:35;27.25;32.60
75799;DHT22;70933;44.692;37.776;2023-07-16T04:12:37;27.26;32.36
75799;DHT22;70933;44.692;37.776;2023-07-16T04:13:39;27.25;32.09
75799;DHT22;70933;44.692;37.776;2023-07-16T04:14:41;27.24;31.88
75799;DHT22;70933;44.692;37.776;2023-07-16T04:15:42;27.24;32.54
75799;DHT22;70933;44.692;37.776;2023-07-16T04:16:44;27.25;34.12
75799;DHT22;70933;44.692;37.776;2023-07-16T04:17:46;27.26;35.83
75799;DHT22;70933;44.692;37.776;2023-07-16T04:18:48;27.26;35.01
75799;DHT22;70933;44.692;37.776;2023-07-16T04:19:49;27.26;34.37
75799;DHT22;70933;44.692;37.776;2023-07-16T04:20:51;27.27;33.57
75799;DHT22;70933;44.692;37.776;2023-07-16T04:21:53;27.28;33.02
75799;DHT22;70933;44.692;37.776;2023-07-16T04:22:55;27.27;32.75
75799;DHT22;70933;44.692;37.776;2023-07-16T04:23:57;27.27;32.41
75799;DHT22;70933;44.692;37.776;2023-07-16T04:24:59;27.26;32.17
75799;DHT22;70933;44.692;37.776;2023-07-16T04:26:00;27.24;31.99
75799;DHT22;70933;44.692;37.776;2023-07-16T04:27:02;27.24;31.92
75799;DHT22;70933;44.692;37.776;2023-07-16T04:28:04;27.24;33.15
75799;DHT22;70933;44.692;37.776;2023-07-16T04:29:06;27.26;34.31
75799;DHT22;70933;44.692;37.776;2023-07-16T04:30:08;27.27;35.52
75799;DHT22;70933;44.692;37.776;2023-07-16T04:31:10;27.28;34.37
75799;DHT22;70933;44.692;37.776;2023-07-16T04:32:12;27.29;33.86
75799;DHT22;70933;44.692;37.776;2023-07-16T04:33:14;27.28;33.18
75799;DHT22;70933;44.692;37.776;2023-07-16T04:34:15;27.29;32.80
75799;DHT22;70933;44.692;37.776;2023-07-16T04:35:17;27.27;32.40
75799;DHT22;70933;44.692;37.776;2023-07-16T04:36:19;27.27;31.92
75799;DHT22;70933;44.692;37.776;2023-07-16T04:37:21;27.27;31.53
75799;DHT22;70933;44.692;37.776;2023-07-16T04:38:23;27.25;31.12
75799;DHT22;70933;44.692;37.776;2023-07-16T04:39:24;27.25;31.43
75799;DHT22;70933;44.692;37.776;2023-07-16T04:40:28;27.25;32.88
75799;DHT22;70933;44.692;37.776;2023-07-16T04:41:30;27.26;34.78
75799;DHT22;70933;44.692;37.776;2023-07-16T04:42:32;27.28;34.60
75799;DHT22;70933;44.692;37.776;2023-07-16T04:43:34;27.28;33.75
75799;DHT22;70933;44.692;37.776;2023-07-16T04:44:38;27.28;33.14
75799;DHT22;70933;44.692;37.776;2023-07-16T04:45:39;27.27;32.60
75799;DHT22;70933;44.692;37.776;2023-07-16T04:46:41;27.27;32.12
75799;DHT22;70933;44.692;37.776;2023-07-16T04:47:43;27.27;31.74
75799;DHT22;70933;44.692;37.776;2023-07-16T04:48:44;27.27;31.35
75799;DHT22;70933;44.692;37.776;2023-07-16T04:49:46;27.26;31.19
75799;DHT22;70933;44.692;37.776;2023-07-16T04:50:48;27.25;30.98
75799;DHT22;70933;44.692;37.776;2023-07-16T04:51:50;27.24;32.04
75799;DHT22;70933;44.692;37.776;2023-07-16T04:52:51;27.26;33.45
75799;DHT22;70933;44.692;37.776;2023-07-16T04:53:53;27.26;34.83
75799;DHT22;70933;44.692;37.776;2023-07-16T04:54:55;27.28;33.87
75799;DHT22;70933;44.692;37.776;2023-07-16T04:55:57;27.28;33.34
75799;DHT22;70933;44.692;37.776;2023-07-16T04:56:59;27.29;32.76
75799;DHT22;70933;44.692;37.776;2023-07-16T04:58:01;27.28;32.30
75799;DHT22;70933;44.692;37.776;2023-07-16T04:59:02;27.27;31.90
75799;DHT22;70933;44.692;37.776;2023-07-16T05:00:05;27.26;31.61
75799;DHT22;70933;44.692;37.776;2023-07-16T05:01:09;27.27;31.20
75799;DHT22;70933;44.692;37.776;2023-07-16T05:02:11;27.26;30.82
75799;DHT22;70933;44.692;37.776;2023-07-16T05:03:13;27.26;30.53
75799;DHT22;70933;44.692;37.776;2023-07-16T05:04:15;27.24;31.52
75799;DHT22;70933;44.692;37.776;2023-07-16T05:05:17;27.25;32.74
75799;DHT22;70933;44.692;37.776;2023-07-16T05:06:19;27.27;34.39
75799;DHT22;70933;44.692;37.776;2023-07-16T05:07:20;27.26;33.76
75799;DHT22;70933;44.692;37.776;2023-07-16T05:08:22;27.27;33.22
75799;DHT22;70933;44.692;37.776;2023-07-16T05:09:24;27.29;32.68
75799;DHT22;70933;44.692;37.776;2023-07-16T05:10:27;27.28;32.11
75799;DHT22;70933;44.692;37.776;2023-07-16T05:11:28;27.27;31.80
75799;DHT22;70933;44.692;37.776;2023-07-16T05:12:30;27.27;31.48
75799;DHT22;70933;44.692;37.776;2023-07-16T05:13:32;27.26;31.04
75799;DHT22;70933;44.692;37.776;2023-07-16T05:14:43;27.25;30.80
75799;DHT22;70933;44.692;37.776;2023-07-16T05:15:46;27.25;30.46
75799;DHT22;70933;44.692;37.776;2023-07-16T05:16:48;27.23;30.28
75799;DHT22;70933;44.692;37.776;2023-07-16T05:17:50;27.22;30.05
75799;DHT22;70933;44.692;37.776;2023-07-16T05:18:52;27.22;30.56
75799;DHT22;70933;44.692;37.776;2023-07-16T05:19:53;27.23;31.77
75799;DHT22;70933;44.692;37.776;2023-07-16T05:20:55;27.22;33.17
75799;DHT22;70933;44.692;37.776;2023-07-16T05:21:57;27.24;33.38
75799;DHT22;70933;44.692;37.776;2023-07-16T05:22:59;27.25;32.71
75799;DHT22;70933;44.692;37.776;2023-07-16T05:24:00;27.26;32.12
75799;DHT22;70933;44.692;37.776;2023-07-16T05:25:02;27.26;31.58
75799;DHT22;70933;44.692;37.776;2023-07-16T05:26:04;27.25;31.13
75799;DHT22;70933;44.692;37.776;2023-07-16T05:27:06;27.23;30.78
75799;DHT22;70933;44.692;37.776;2023-07-16T05:28:08;27.23;30.59
75799;DHT22;70933;44.692;37.776;2023-07-16T05:29:10;27.22;30.35
75799;DHT22;70933;44.692;37.776;2023-07-16T05:30:12;27.22;30.19
75799;DHT22;70933;44.692;37.776;2023-07-16T05:31:14;27.23;30.85
75799;DHT22;70933;44.692;37.776;2023-07-16T05:32:15;27.23;32.11
75799;DHT22;70933;44.692;37.776;2023-07-16T05:33:17;27.25;33.24
75799;DHT22;70933;44.692;37.776;2023-07-16T05:34:19;27.26;33.27
75799;DHT22;70933;44.692;37.776;2023-07-16T05:35:21;27.26;32.59
75799;DHT22;70933;44.692;37.776;2023-07-16T05:36:23;27.27;32.12
75799;DHT22;70933;44.692;37.776;2023-07-16T05:37:26;27.26;31.60
75799;DHT22;70933;44.692;37.776;2023-07-16T05:38:27;27.25;31.20
75799;DHT22;70933;44.692;37.776;2023-07-16T05:39:29;27.25;30.83
75799;DHT22;70933;44.692;37.776;2023-07-16T05:40:31;27.26;30.51
75799;DHT22;70933;44.692;37.776;2023-07-16T05:41:33;27.25;30.36
75799;DHT22;70933;44.692;37.776;2023-07-16T05:42:35;27.24;30.13
75799;DHT22;70933;44.692;37.776;2023-07-16T05:43:37;27.25;30.03
75799;DHT22;70933;44.692;37.776;2023-07-16T05:44:38;27.24;29.85
75799;DHT22;70933;44.692;37.776;2023-07-16T05:45:40;27.24;29.72
75799;DHT22;70933;44.692;37.776;2023-07-16T05:46:42;27.23;30.31
75799;DHT22;70933;44.692;37.776;2023-07-16T05:47:44;27.22;31.67
75799;DHT22;70933;44.692;37.776;2023-07-16T05:48:46;27.23;33.21
75799;DHT22;70933;44.692;37.776;2023-07-16T05:49:47;27.25;33.12
75799;DHT22;70933;44.692;37.776;2023-07-16T05:50:49;27.25;32.43
75799;DHT22;70933;44.692;37.776;2023-07-16T05:51:51;27.26;31.78
75799;DHT22;70933;44.692;37.776;2023-07-16T05:52:53;27.26;31.35
75799;DHT22;70933;44.692;37.776;2023-07-16T05:53:55;27.26;31.06
75799;DHT22;70933;44.692;37.776;2023-07-16T05:54:57;27.24;30.74
75799;DHT22;70933;44.692;37.776;2023-07-16T05:55:59;27.23;30.53
75799;DHT22;70933;44.692;37.776;2023-07-16T05:57:00;27.22;30.31
75799;DHT22;70933;44.692;37.776;2023-07-16T05:58:02;27.22;30.09
75799;DHT22;70933;44.692;37.776;2023-07-16T05:59:04;27.21;29.93
75799;DHT22;70933;44.692;37.776;2023-07-16T06:00:06;27.21;29.66
75799;DHT22;70933;44.692;37.776;2023-07-16T06:01:13;27.21;29.38
75799;DHT22;70933;44.692;37.776;2023-07-16T06:02:14;27.20;29.18
75799;DHT22;70933;44.692;37.776;2023-07-16T06:03:16;27.20;29.02
75799;DHT22;70933;44.692;37.776;2023-07-16T06:04:20;27.19;29.00
75799;DHT22;70933;44.692;37.776;2023-07-16T06:05:22;27.19;30.36
75799;DHT22;70933;44.692;37.776;2023-07-16T06:06:24;27.17;31.51
75799;DHT22;70933;44.692;37.776;2023-07-16T06:07:25;27.21;32.52
75799;DHT22;70933;44.692;37.776;2023-07-16T06:08:27;27.20;31.64
75799;DHT22;70933;44.692;37.776;2023-07-16T06:09:29;27.21;31.22
75799;DHT22;70933;44.692;37.776;2023-07-16T06:10:33;27.22;30.70
75799;DHT22;70933;44.692;37.776;2023-07-16T06:11:35;27.21;30.19
75799;DHT22;70933;44.692;37.776;2023-07-16T06:12:37;27.21;29.89
75799;DHT22;70933;44.692;37.776;2023-07-16T06:13:39;27.20;29.74
75799;DHT22;70933;44.692;37.776;2023-07-16T06:14:41;27.20;29.53
75799;DHT22;70933;44.692;37.776;2023-07-16T06:15:43;27.20;29.32
75799;DHT22;70933;44.692;37.776;2023-07-16T06:16:45;27.19;29.07
75799;DHT22;70933;44.692;37.776;2023-07-16T06:17:46;27.19;28.81
75799;DHT22;70933;44.692;37.776;2023-07-16T06:18:48;27.19;28.66
75799;DHT22;70933;44.692;37.776;2023-07-16T06:19:50;27.17;28.50
75799;DHT22;70933;44.692;37.776;2023-07-16T06:20:53;27.16;28.28
75799;DHT22;70933;44.692;37.776;2023-07-16T06:21:56;27.16;28.03
75799;DHT22;70933;44.692;37.776;2023-07-16T06:22:58;27.16;27.87
75799;DHT22;70933;44.692;37.776;2023-07-16T06:24:00;27.14;27.76
75799;DHT22;70933;44.692;37.776;2023-07-16T06:25:02;27.13;28.81
75799;DHT22;70933;44.692;37.776;2023-07-16T06:26:06;27.15;30.15
75799;DHT22;70933;44.692;37.776;2023-07-16T06:27:08;27.16;31.30
75799;DHT22;70933;44.692;37.776;2023-07-16T06:28:09;27.16;30.50
75799;DHT22;70933;44.692;37.776;2023-07-16T06:29:11;27.16;30.21
75799;DHT22;70933;44.692;37.776;2023-07-16T06:30:13;27.17;29.89
75799;DHT22;70933;44.692;37.776;2023-07-16T06:31:16;27.19;29.54
75799;DHT22;70933;44.692;37.776;2023-07-16T06:32:18;27.16;29.13
75799;DHT22;70933;44.692;37.776;2023-07-16T06:33:20;27.17;28.82
75799;DHT22;70933;44.692;37.776;2023-07-16T06:34:22;27.17;28.58